createdAt,value
2022-12-01T00:01:18.515Z,85.49
2022-12-01T00:03:45.880Z,85.85
2022-12-01T00:06:15.714Z,86.35
2022-12-01T00:08:43.919Z,85.44
2022-12-01T00:11:12.061Z,85.57
2022-12-01T00:13:40.708Z,85.35
2022-12-01T00:16:12.081Z,86.13
2022-12-01T00:18:39.506Z,86.13
2022-12-01T00:21:14.045Z,85.99
2022-12-01T00:23:43.874Z,86.49
2022-12-01T00:26:11.667Z,86.43
2022-12-01T00:28:40.350Z,85.98
2022-12-01T00:31:08.833Z,85.77
2022-12-01T00:33:36.404Z,86.32
2022-12-01T00:36:05.617Z,85.84
2022-12-01T00:38:33.146Z,85.92
2022-12-01T00:41:00.904Z,85.79
2022-12-01T00:43:28.221Z,85.22
2022-12-01T00:45:57.624Z,85.62
2022-12-01T00:48:25.517Z,86.13
2022-12-01T00:50:54.965Z,86.38
2022-12-01T00:53:22.327Z,86.03
2022-12-01T00:55:50.231Z,85.95
2022-12-01T00:58:17.633Z,84.58
2022-12-01T01:00:45.260Z,84.43
2022-12-01T01:03:13.908Z,83.71
2022-12-01T01:05:43.175Z,83.68
2022-12-01T01:08:11.993Z,84.79
2022-12-01T01:10:40.655Z,84.68
2022-12-01T01:13:08.063Z,84.30
2022-12-01T01:15:36.019Z,83.77
2022-12-01T01:18:03.869Z,85.17
2022-12-01T01:20:34.930Z,85.72
2022-12-01T01:23:02.371Z,85.71
2022-12-01T01:25:32.093Z,85.72
2022-12-01T01:27:59.285Z,85.49
2022-12-01T01:30:27.031Z,85.25
2022-12-01T01:32:54.356Z,85.50
2022-12-01T01:35:21.986Z,86.41
2022-12-01T01:37:50.701Z,86.50
2022-12-01T01:40:18.982Z,86.32
2022-12-01T01:42:46.464Z,86.43
2022-12-01T01:45:20.747Z,85.45
2022-12-01T01:47:50.697Z,85.43
2022-12-01T01:50:22.329Z,84.80
2022-12-01T01:52:55.851Z,84.96
2022-12-01T01:55:23.935Z,86.13
2022-12-01T01:57:51.578Z,86.17
2022-12-01T02:00:20.468Z,86.29
2022-12-01T02:02:49.318Z,86.09
2022-12-01T02:05:20.595Z,85.25
2022-12-01T02:07:48.622Z,85.17
2022-12-01T02:10:18.928Z,85.23
2022-12-01T02:13:05.834Z,84.64
2022-12-01T02:15:41.230Z,85.55
2022-12-01T02:18:23.176Z,85.12
2022-12-01T02:21:28.431Z,85.18
2022-12-01T02:24:37.299Z,84.93
2022-12-01T02:27:12.800Z,83.81
2022-12-01T02:30:09.177Z,85.22
2022-12-01T02:32:49.409Z,85.92
2022-12-01T02:35:24.544Z,85.61
2022-12-01T02:38:03.576Z,86.12
2022-12-01T02:40:36.893Z,86.20
2022-12-01T02:43:13.076Z,84.92
2022-12-01T02:45:47.869Z,84.15
2022-12-01T02:48:22.794Z,83.54
2022-12-01T02:50:52.824Z,84.54
2022-12-01T02:53:22.577Z,84.71
2022-12-01T02:55:52.199Z,85.58
2022-12-01T02:58:20.891Z,85.07
2022-12-01T03:01:10.788Z,84.95
2022-12-01T03:03:55.989Z,84.77
2022-12-01T03:06:33.851Z,83.29
2022-12-01T03:09:10.073Z,83.03
2022-12-01T03:11:44.522Z,83.12
2022-12-01T03:14:23.485Z,83.34
2022-12-01T03:16:53.135Z,82.75
2022-12-01T03:19:29.689Z,82.61
2022-12-01T03:22:04.725Z,81.82
2022-12-01T03:24:34.960Z,81.98
2022-12-01T03:27:03.884Z,81.46
2022-12-01T03:29:34.972Z,81.84
2022-12-01T03:32:07.372Z,82.21
2022-12-01T03:34:41.241Z,82.29
2022-12-01T03:37:10.502Z,81.86
2022-12-01T03:39:40.001Z,82.31
2022-12-01T03:42:13.516Z,82.17
2022-12-01T03:44:46.859Z,81.94
2022-12-01T03:47:18.359Z,81.38
2022-12-01T03:49:50.884Z,81.06
2022-12-01T03:52:30.419Z,81.31
2022-12-01T03:55:07.516Z,80.50
2022-12-01T03:57:41.317Z,80.13
2022-12-01T04:00:10.702Z,79.86
2022-12-01T04:02:38.454Z,80.05
2022-12-01T04:05:08.432Z,79.68
2022-12-01T04:07:35.859Z,80.11
2022-12-01T04:10:04.252Z,79.34
2022-12-01T04:12:31.520Z,79.66
2022-12-01T04:15:00.775Z,79.21
2022-12-01T04:17:29.123Z,79.46
2022-12-01T04:19:56.926Z,79.08
2022-12-01T04:22:26.650Z,79.53
2022-12-01T04:24:54.338Z,79.10
2022-12-01T04:27:21.828Z,78.18
2022-12-01T04:29:50.152Z,78.89
2022-12-01T04:32:17.634Z,78.51
2022-12-01T04:34:45.515Z,77.84
2022-12-01T04:37:12.906Z,77.87
2022-12-01T04:39:42.534Z,77.62
2022-12-01T04:42:10.638Z,77.36
2022-12-01T04:44:38.956Z,77.05
2022-12-01T04:47:07.053Z,77.92
2022-12-01T04:49:35.384Z,77.36
2022-12-01T04:52:02.871Z,77.68
2022-12-01T04:54:30.663Z,77.01
2022-12-01T04:56:59.283Z,77.25
2022-12-01T04:59:27.370Z,77.40
2022-12-01T05:01:54.704Z,77.46
2022-12-01T05:04:22.798Z,77.55
2022-12-01T05:06:50.359Z,77.87
2022-12-01T05:09:18.181Z,78.02
2022-12-01T05:11:45.507Z,77.90
2022-12-01T05:14:14.847Z,78.26
2022-12-01T05:16:42.593Z,77.95
2022-12-01T05:19:10.467Z,78.11
2022-12-01T05:21:37.935Z,78.08
2022-12-01T05:24:06.644Z,77.86
2022-12-01T05:26:34.103Z,77.74
2022-12-01T05:29:02.555Z,77.53
2022-12-01T05:31:31.624Z,77.78
2022-12-01T05:34:00.249Z,78.08
2022-12-01T05:36:27.839Z,78.45
2022-12-01T05:38:55.890Z,77.47
2022-12-01T05:41:23.153Z,76.89
2022-12-01T05:43:51.084Z,77.08
2022-12-01T05:46:18.592Z,77.58
2022-12-01T05:48:48.078Z,77.99
2022-12-01T05:51:16.915Z,78.48
2022-12-01T05:53:44.923Z,78.61
2022-12-01T05:56:12.417Z,78.66
2022-12-01T05:58:40.126Z,78.68
2022-12-01T06:01:07.724Z,78.87
2022-12-01T06:03:35.329Z,78.35
2022-12-01T06:06:04.900Z,78.16
2022-12-01T06:08:32.371Z,78.42
2022-12-01T06:11:00.277Z,78.62
2022-12-01T06:13:30.955Z,78.36
2022-12-01T06:15:59.969Z,77.98
2022-12-01T06:18:28.200Z,77.94
2022-12-01T06:20:56.006Z,78.11
2022-12-01T06:23:30.022Z,78.40
2022-12-01T06:25:58.442Z,78.47
2022-12-01T06:28:25.661Z,77.74
2022-12-01T06:30:57.831Z,77.95
2022-12-01T06:33:28.663Z,77.91
2022-12-01T06:35:59.793Z,77.68
2022-12-01T06:38:31.619Z,77.45
2022-12-01T06:41:00.189Z,78.13
2022-12-01T06:43:27.941Z,78.30
2022-12-01T06:46:01.307Z,78.42
2022-12-01T06:48:29.761Z,78.43
2022-12-01T06:50:58.202Z,77.89
2022-12-01T06:53:25.745Z,77.92
2022-12-01T06:55:55.123Z,78.13
2022-12-01T06:58:22.825Z,78.48
2022-12-01T07:00:52.415Z,78.18
2022-12-01T07:03:19.989Z,77.52
2022-12-01T07:05:55.380Z,78.49
2022-12-01T07:08:22.716Z,78.72
2022-12-01T07:10:59.399Z,78.91
2022-12-01T07:13:32.853Z,79.50
2022-12-01T07:16:02.426Z,79.04
2022-12-01T07:18:29.931Z,77.98
2022-12-01T07:21:00.213Z,78.35
2022-12-01T07:23:27.993Z,78.53
2022-12-01T07:26:01.328Z,78.29
2022-12-01T07:28:28.815Z,78.39
2022-12-01T07:31:02.130Z,78.83
2022-12-01T07:33:29.896Z,77.54
2022-12-01T07:35:58.334Z,78.18
2022-12-01T07:38:27.493Z,78.70
2022-12-01T07:40:55.114Z,78.20
2022-12-01T07:43:23.913Z,78.42
2022-12-01T07:45:51.705Z,78.03
2022-12-01T07:48:19.050Z,77.30
2022-12-01T07:50:47.035Z,76.81
2022-12-01T07:53:20.609Z,77.17
2022-12-01T07:55:49.424Z,76.94
2022-12-01T07:58:16.608Z,78.03
2022-12-01T08:00:46.237Z,77.74
2022-12-01T08:03:13.918Z,77.06
2022-12-01T08:05:41.885Z,77.79
2022-12-01T08:08:09.563Z,77.92
2022-12-01T08:10:37.751Z,77.07
2022-12-01T08:13:05.347Z,78.21
2022-12-01T08:15:33.260Z,77.37
2022-12-01T08:18:02.550Z,77.01
2022-12-01T08:20:30.401Z,77.42
2022-12-01T08:23:00.500Z,77.95
2022-12-01T08:25:28.751Z,76.99
2022-12-01T08:27:56.844Z,77.16
2022-12-01T08:30:24.926Z,77.64
2022-12-01T08:32:53.718Z,77.12
2022-12-01T08:35:23.355Z,76.65
2022-12-01T08:37:52.079Z,76.97
2022-12-01T08:40:19.988Z,76.87
2022-12-01T08:42:47.328Z,76.93
2022-12-01T08:45:15.435Z,76.24
2022-12-01T08:47:42.723Z,76.63
2022-12-01T08:50:10.645Z,76.99
2022-12-01T08:52:39.519Z,76.88
2022-12-01T08:55:10.749Z,76.97
2022-12-01T08:57:38.037Z,76.99
2022-12-01T09:00:06.978Z,78.16
2022-12-01T09:02:34.805Z,77.28
2022-12-01T09:05:03.569Z,77.79
2022-12-01T09:07:31.354Z,76.24
2022-12-01T09:10:00.681Z,76.51
2022-12-01T09:12:29.545Z,77.10
2022-12-01T09:14:57.302Z,76.82
2022-12-01T09:17:24.666Z,76.94
2022-12-01T09:19:52.703Z,76.73
2022-12-01T09:22:20.158Z,76.40
2022-12-01T09:24:47.941Z,75.64
2022-12-01T09:27:16.593Z,76.70
2022-12-01T09:29:44.295Z,76.70
2022-12-01T09:32:11.514Z,77.22
2022-12-01T09:34:39.201Z,76.74
2022-12-01T09:37:06.504Z,76.61
2022-12-01T09:39:34.157Z,76.46
2022-12-01T09:42:09.026Z,76.59
2022-12-01T09:44:43.966Z,76.29
2022-12-01T09:47:18.081Z,75.69
2022-12-01T09:49:53.009Z,76.58
2022-12-01T09:52:21.898Z,77.23
2022-12-01T09:54:49.969Z,75.88
2022-12-01T09:57:28.502Z,75.10
2022-12-01T09:59:59.249Z,75.46
2022-12-01T10:02:33.286Z,74.59
2022-12-01T10:05:04.959Z,75.43
2022-12-01T10:07:36.822Z,76.11
2022-12-01T10:10:12.079Z,74.88
2022-12-01T10:12:43.441Z,75.43
2022-12-01T10:15:30.072Z,75.22
2022-12-01T10:18:07.971Z,75.93
2022-12-01T10:20:44.978Z,74.32
2022-12-01T10:23:31.558Z,73.97
2022-12-01T10:26:03.741Z,73.93
2022-12-01T10:28:53.954Z,75.28
2022-12-01T10:31:31.293Z,75.52
2022-12-01T10:34:01.693Z,76.01
2022-12-01T10:36:32.930Z,76.87
2022-12-01T10:39:02.020Z,76.97
2022-12-01T10:41:33.988Z,76.27
2022-12-01T10:44:04.970Z,76.90
2022-12-01T10:46:41.045Z,76.08
2022-12-01T10:49:10.439Z,75.70
2022-12-01T10:51:51.365Z,75.79
2022-12-01T10:54:19.860Z,76.03
2022-12-01T10:56:49.795Z,76.00
2022-12-01T10:59:26.937Z,76.56
2022-12-01T11:01:58.347Z,76.30
2022-12-01T11:04:36.380Z,76.96
2022-12-01T11:07:04.555Z,76.93
2022-12-01T11:09:32.497Z,77.34
2022-12-01T11:12:15.896Z,77.07
2022-12-01T11:14:47.432Z,76.80
2022-12-01T11:17:29.610Z,77.35
2022-12-01T11:19:57.315Z,77.30
2022-12-01T11:22:27.746Z,77.01
2022-12-01T11:25:01.510Z,76.98
2022-12-01T11:27:32.813Z,76.18
2022-12-01T11:30:02.607Z,76.19
2022-12-01T11:32:35.174Z,76.60
2022-12-01T11:35:06.282Z,77.43
2022-12-01T11:37:39.295Z,77.64
2022-12-01T11:40:13.683Z,77.59
2022-12-01T11:42:42.308Z,77.29
2022-12-01T11:45:27.840Z,76.90
2022-12-01T11:48:02.720Z,77.09
2022-12-01T11:50:32.431Z,76.89
2022-12-01T11:53:00.415Z,76.67
2022-12-01T11:55:31.636Z,76.19
2022-12-01T11:58:02.806Z,75.98
2022-12-01T12:00:41.980Z,76.53
2022-12-01T12:03:21.293Z,75.57
2022-12-01T12:06:31.853Z,75.11
2022-12-01T12:09:03.424Z,77.22
2022-12-01T12:11:43.480Z,77.26
2022-12-01T12:14:29.967Z,77.08
2022-12-01T12:17:18.998Z,75.94
2022-12-01T12:20:27.836Z,75.24
2022-12-01T12:23:05.953Z,75.86
2022-12-01T12:25:47.312Z,74.63
2022-12-01T12:28:27.629Z,75.86
2022-12-01T12:31:08.245Z,75.58
2022-12-01T12:33:53.375Z,74.25
2022-12-01T12:36:32.639Z,75.96
2022-12-01T12:39:16.355Z,75.60
2022-12-01T12:41:46.352Z,76.55
2022-12-01T12:44:32.366Z,76.93
2022-12-01T12:47:09.981Z,75.89
2022-12-01T12:49:44.587Z,75.40
2022-12-01T12:52:18.727Z,73.62
2022-12-01T12:54:50.727Z,75.96
2022-12-01T12:57:29.552Z,75.95
2022-12-01T13:00:02.284Z,77.15
2022-12-01T13:02:36.415Z,77.79
2022-12-01T13:05:09.998Z,77.00
2022-12-01T13:07:44.976Z,75.39
2022-12-01T13:10:22.281Z,76.57
2022-12-01T13:12:56.888Z,75.75
2022-12-01T13:15:25.548Z,75.77
2022-12-01T13:17:57.588Z,75.65
2022-12-01T13:20:28.197Z,75.72
2022-12-01T13:23:00.117Z,75.51
2022-12-01T13:25:31.243Z,76.10
2022-12-01T13:28:02.490Z,75.70
2022-12-01T13:30:30.121Z,76.21
2022-12-01T13:33:00.840Z,75.82
2022-12-01T13:35:31.255Z,76.21
2022-12-01T13:41:14.913Z,77.24
2022-12-01T13:43:53.344Z,77.09
2022-12-01T13:46:26.027Z,77.28
2022-12-01T13:48:55.608Z,78.42
2022-12-01T13:51:23.278Z,78.89
2022-12-01T13:53:58.492Z,78.51
2022-12-01T13:56:39.481Z,78.29
2022-12-01T13:59:40.687Z,78.58
2022-12-01T14:02:16.497Z,77.33
2022-12-01T14:04:44.721Z,76.55
2022-12-01T14:07:35.323Z,77.58
2022-12-01T14:10:25.952Z,78.68
2022-12-01T14:12:58.083Z,78.31
2022-12-01T14:15:36.009Z,77.41
2022-12-01T14:18:20.164Z,77.34
2022-12-01T14:20:49.444Z,77.63
2022-12-01T14:23:23.404Z,77.32
2022-12-01T14:26:01.797Z,77.03
2022-12-01T14:29:19.677Z,77.43
2022-12-01T14:32:19.824Z,76.60
2022-12-01T14:34:52.780Z,77.30
2022-12-01T14:37:25.016Z,76.93
2022-12-01T14:39:57.681Z,78.05
2022-12-01T14:42:33.370Z,78.43
2022-12-01T14:45:04.068Z,79.21
2022-12-01T14:47:42.668Z,78.58
2022-12-01T14:52:47.323Z,78.38
2022-12-01T14:55:18.724Z,77.93
2022-12-01T14:57:49.725Z,78.76
2022-12-01T15:00:20.067Z,78.10
2022-12-01T15:02:54.014Z,77.50
2022-12-01T15:05:24.649Z,78.19
2022-12-01T15:08:06.707Z,78.70
2022-12-01T15:10:50.355Z,77.69
2022-12-01T15:13:23.239Z,77.40
2022-12-01T15:15:52.567Z,77.62
2022-12-01T15:18:29.043Z,77.68
2022-12-01T15:21:00.727Z,77.65
2022-12-01T15:23:28.826Z,77.96
2022-12-01T15:25:56.344Z,77.94
2022-12-01T15:28:31.517Z,77.20
2022-12-01T15:31:00.435Z,77.09
2022-12-01T15:33:36.765Z,76.59
2022-12-01T15:36:06.944Z,76.77
2022-12-01T15:38:37.053Z,77.35
2022-12-01T15:41:28.629Z,77.15
2022-12-01T15:43:56.803Z,77.87
2022-12-01T15:46:31.198Z,77.68
2022-12-01T15:49:18.418Z,77.00
2022-12-01T15:51:46.951Z,77.88
2022-12-01T15:54:20.965Z,78.55
2022-12-01T15:56:53.409Z,78.14
2022-12-01T15:59:33.383Z,77.91
2022-12-01T16:02:07.094Z,76.97
2022-12-01T16:04:36.985Z,76.73
2022-12-01T16:07:07.233Z,75.65
2022-12-01T16:09:36.724Z,75.70
2022-12-01T16:12:20.853Z,75.91
2022-12-01T16:14:54.674Z,75.47
2022-12-01T16:17:23.193Z,74.64
2022-12-01T16:20:16.682Z,75.80
2022-12-01T16:22:46.177Z,76.50
2022-12-01T16:25:18.974Z,76.92
2022-12-01T16:27:54.679Z,77.22
2022-12-01T16:30:25.066Z,76.88
2022-12-01T16:33:01.356Z,77.73
2022-12-01T16:35:32.003Z,77.56
2022-12-01T16:38:00.544Z,77.46
2022-12-01T16:40:28.340Z,76.82
2022-12-01T16:42:55.789Z,77.46
2022-12-01T16:45:24.112Z,77.17
2022-12-01T16:47:51.515Z,76.78
2022-12-01T16:50:21.696Z,76.83
2022-12-01T16:52:50.342Z,76.93
2022-12-01T16:55:36.445Z,77.64
2022-12-01T16:58:03.745Z,77.74
2022-12-01T17:00:31.858Z,77.61
2022-12-01T17:02:59.994Z,77.14
2022-12-01T17:05:27.899Z,76.30
2022-12-01T17:07:56.768Z,76.83
2022-12-01T17:10:24.858Z,77.20
2022-12-01T17:12:52.448Z,76.55
2022-12-01T17:15:20.484Z,76.50
2022-12-01T17:17:47.842Z,76.57
2022-12-01T17:20:16.120Z,76.74
2022-12-01T17:22:43.784Z,76.38
2022-12-01T17:25:13.023Z,76.75
2022-12-01T17:27:40.434Z,77.17
2022-12-01T17:30:12.167Z,77.46
2022-12-01T17:32:39.475Z,77.17
2022-12-01T17:35:08.163Z,77.42
2022-12-01T17:37:35.665Z,77.33
2022-12-01T17:40:03.858Z,77.39
2022-12-01T17:42:33.554Z,77.81
2022-12-01T17:45:01.643Z,77.76
2022-12-01T17:47:29.442Z,77.25
2022-12-01T17:49:57.360Z,76.69
2022-12-01T17:52:28.330Z,77.26
2022-12-01T17:54:56.689Z,77.20
2022-12-01T17:57:24.524Z,76.55
2022-12-01T17:59:53.781Z,76.30
2022-12-01T18:02:21.309Z,76.72
2022-12-01T18:04:49.923Z,76.83
2022-12-01T18:07:17.771Z,76.57
2022-12-01T18:09:45.854Z,76.50
2022-12-01T18:12:13.609Z,75.96
2022-12-01T18:14:41.717Z,76.52
2022-12-01T18:17:10.819Z,76.25
2022-12-01T18:19:38.933Z,76.21
2022-12-01T18:22:06.491Z,76.01
2022-12-01T18:24:34.769Z,75.58
2022-12-01T18:27:02.094Z,75.50
2022-12-01T18:29:29.932Z,75.91
2022-12-01T18:31:58.844Z,75.96
2022-12-01T18:34:28.820Z,75.70
2022-12-01T18:36:56.715Z,75.55
2022-12-01T18:39:24.650Z,76.26
2022-12-01T18:41:51.986Z,76.61
2022-12-01T18:44:19.603Z,77.00
2022-12-01T18:46:47.554Z,76.73
2022-12-01T18:49:16.035Z,77.20
2022-12-01T18:51:45.064Z,76.23
2022-12-01T18:54:14.565Z,76.35
2022-12-01T18:56:42.504Z,76.81
2022-12-01T18:59:11.712Z,76.63
2022-12-01T19:01:41.302Z,76.05
2022-12-01T19:04:10.117Z,75.78
2022-12-01T19:06:39.452Z,76.28
2022-12-01T19:09:10.911Z,76.73
2022-12-01T19:11:39.526Z,75.84
2022-12-01T19:14:08.279Z,76.18
2022-12-01T19:16:35.774Z,75.74
2022-12-01T19:19:04.161Z,76.14
2022-12-01T19:21:31.613Z,75.49
2022-12-01T19:23:59.489Z,76.18
2022-12-01T19:26:28.302Z,76.52
2022-12-01T19:28:56.092Z,76.59
2022-12-01T19:31:24.889Z,76.15
2022-12-01T19:33:54.004Z,75.55
2022-12-01T19:36:23.453Z,75.46
2022-12-01T19:38:51.780Z,75.74
2022-12-01T19:41:20.247Z,75.55
2022-12-01T19:43:49.531Z,75.70
2022-12-01T19:46:19.281Z,75.77
2022-12-01T19:48:47.873Z,75.51
2022-12-01T19:51:19.765Z,75.82
2022-12-01T19:53:47.875Z,75.53
2022-12-01T19:56:15.372Z,75.44
2022-12-01T19:58:43.694Z,75.72
2022-12-01T20:01:14.448Z,75.51
2022-12-01T20:03:44.668Z,75.90
2022-12-01T20:06:14.126Z,75.48
2022-12-01T20:08:42.628Z,75.65
2022-12-01T20:11:10.660Z,75.59
2022-12-01T20:13:40.827Z,74.43
2022-12-01T20:16:10.609Z,74.58
2022-12-01T20:18:40.985Z,74.26
2022-12-01T20:21:10.739Z,74.38
2022-12-01T20:23:39.115Z,75.54
2022-12-01T20:26:07.877Z,75.58
2022-12-01T20:28:37.147Z,75.88
2022-12-01T20:31:09.850Z,75.86
2022-12-01T20:33:41.245Z,75.71
2022-12-01T20:36:09.379Z,74.69
2022-12-01T20:38:38.270Z,75.22
2022-12-01T20:41:07.136Z,75.00
2022-12-01T20:43:35.848Z,74.76
2022-12-01T20:46:06.612Z,75.70
2022-12-01T20:48:34.726Z,76.08
2022-12-01T20:51:05.771Z,75.05
2022-12-01T20:53:34.697Z,75.05
2022-12-01T20:56:03.477Z,74.68
2022-12-01T20:58:37.034Z,74.85
2022-12-01T21:01:08.396Z,74.38
2022-12-01T21:03:38.128Z,74.22
2022-12-01T21:06:07.543Z,74.12
2022-12-01T21:08:37.458Z,74.98
2022-12-01T21:11:06.405Z,75.27
2022-12-01T21:13:35.273Z,75.87
2022-12-01T21:16:07.020Z,75.37
2022-12-01T21:18:42.362Z,75.66
2022-12-01T21:21:21.464Z,75.48
2022-12-01T21:24:00.185Z,75.79
2022-12-01T21:26:27.455Z,75.71
2022-12-01T21:28:59.064Z,75.25
2022-12-01T21:31:26.920Z,75.08
2022-12-01T21:33:56.180Z,75.83
2022-12-01T21:36:29.024Z,75.13
2022-12-01T21:39:12.893Z,75.30
2022-12-01T21:41:40.436Z,75.42
2022-12-01T21:44:13.710Z,75.54
2022-12-01T21:46:40.829Z,74.97
2022-12-01T21:49:18.094Z,75.35
2022-12-01T21:51:47.890Z,75.13
2022-12-01T21:54:19.726Z,74.58
2022-12-01T21:56:48.618Z,74.38
2022-12-01T21:59:19.586Z,75.04
2022-12-01T22:01:48.176Z,75.97
2022-12-01T22:04:18.907Z,75.65
2022-12-01T22:06:49.830Z,75.67
2022-12-01T22:09:24.723Z,75.59
2022-12-01T22:11:54.592Z,75.57
2022-12-01T22:14:24.236Z,75.92
2022-12-01T22:16:56.838Z,76.50
2022-12-01T22:19:30.855Z,75.93
2022-12-01T22:22:03.537Z,76.15
2022-12-01T22:24:40.454Z,76.57
2022-12-01T22:27:29.977Z,76.53
2022-12-01T22:30:00.592Z,77.32
2022-12-01T22:32:41.286Z,76.54
2022-12-01T22:35:28.581Z,76.81
2022-12-01T22:38:13.708Z,76.69
2022-12-01T22:40:48.496Z,76.45
2022-12-01T22:43:41.654Z,77.25
2022-12-01T22:46:23.534Z,76.76
2022-12-01T22:48:53.059Z,76.64
2022-12-01T22:51:37.283Z,76.16
2022-12-01T22:54:28.966Z,75.35
2022-12-01T22:57:11.803Z,76.34
2022-12-01T22:59:42.129Z,77.25
2022-12-01T23:02:20.524Z,76.30
2022-12-01T23:04:51.023Z,76.02
2022-12-01T23:07:38.379Z,75.96
2022-12-01T23:10:17.932Z,75.50
2022-12-01T23:12:47.675Z,74.93
2022-12-01T23:15:32.419Z,75.50
2022-12-01T23:18:11.835Z,75.89
2022-12-01T23:20:40.737Z,75.81
2022-12-01T23:23:14.799Z,75.83
2022-12-01T23:25:44.748Z,74.42
2022-12-01T23:28:15.533Z,74.88
2022-12-01T23:30:51.185Z,75.30
2022-12-01T23:33:21.486Z,75.63
2022-12-01T23:35:53.814Z,76.63
2022-12-01T23:38:23.988Z,76.49
2022-12-01T23:41:00.575Z,76.01
2022-12-01T23:43:31.953Z,76.71
2022-12-01T23:46:04.309Z,76.94
2022-12-01T23:48:36.488Z,77.66
2022-12-01T23:51:05.038Z,77.74
2022-12-01T23:53:33.567Z,77.55
2022-12-01T23:56:05.373Z,77.30
2022-12-01T23:58:34.602Z,76.98
